This demonstration page uses our WeatherBlox Daily Observations layout. Learn more.

36.17497, -115.13722

Hourly Observations for April 3, 2018

Temp ( °F °C ) Dew Point ( °F °C ) Humidity (%) Winds ( mph kmh ) Pressure ( in mb ) Visibility ( mi km ) Precip ( " mm )
12:53 am 00:53 Clear 70 21.1 23 -5 17 17 ENE 7 11 29.77 1008 10 16.09344 0 0
1:53 am 01:53 Clear 70 21.1 20 -6.7 15 15 N 13 20 29.77 1008 10 16.09344 0 0
2:53 am 02:53 Clear 68 20 17 -8.3 14 14 N 13 20 29.8 1009 10 16.09344 0 0
3:53 am 03:53 Clear 65 18.3 17 -8.3 16 16 E 17 28 29.83 1010 10 16.09344 0 0
4:53 am 04:53 Clear 62 16.7 15 -9.4 16 16 ENE 16 26 29.88 1012 10 16.09344 0 0
5:53 am 05:53 Clear 58 14.4 13 -10.6 17 17 E 10 17 29.91 1013 10 16.09344 0 0
6:53 am 06:53 Sunny 57 13.9 12 -11.1 17 17 E 12 19 29.94 1014 10 16.09344 0 0
7:53 am 07:53 Sunny 58 14.4 12 -11.1 16 16 Calm 30 1016 10 16.09344 0 0
8:53 am 08:53 Sunny 62 16.7 6 -14.4 11 11 N 15 24 30.03 1017 10 16.09344 0 0
9:53 am 09:53 Sunny 64 17.8 5 -15 9 9 N 9 15 30.06 1018 10 16.09344 0 0
10:53 am 10:53 Sunny 64 17.8 8 -13.3 11 11 SE 10 17 30.06 1018 10 16.09344 0 0
11:53 am 11:53 Sunny 66 18.9 7 -13.9 10 10 E 8 13 30.06 1018 10 16.09344 0 0
12:53 pm 12:53 Sunny 69 20.6 4 -15.6 7 7 ENE 8 13 30.03 1017 10 16.09344 0 0
1:53 pm 13:53 Sunny 70 21.1 1 -17.2 6 6 NW 6 9 30.03 1017 10 16.09344 0 0
2:53 pm 14:53 Sunny 71 21.7 -3 -19.4 5 5 Calm 30 1016 10 16.09344 0 0
3:53 pm 15:53 Sunny 72 22.2 -4 -20 5 5 SE 7 11 29.97 1015 10 16.09344 0 0
4:53 pm 16:53 Sunny 73 22.8 -5 -20.6 4 4 SE 7 11 29.97 1015 10 16.09344 0 0
5:53 pm 17:53 Sunny 73 22.8 -5 -20.6 4 4 ESE 6 9 29.97 1015 10 16.09344 0 0
6:53 pm 18:53 Sunny 71 21.7 -5 -20.6 4 4 ESE 6 9 29.97 1015 10 16.09344 0 0
7:53 pm 19:53 Clear 68 20 -6 -21.1 5 5 E 5 7 29.97 1015 10 16.09344 0 0
8:53 pm 20:53 Clear 68 20 -4 -20 5 5 ENE 5 7 29.97 1015 10 16.09344 0 0
9:53 pm 21:53 Clear 66 18.9 4 -15.6 8 8 Calm 30 1016 10 16.09344 0 0
10:53 pm 22:53 Clear 62 16.7 16 -8.9 17 17 WNW 6 9 30 1016 10 16.09344 0 0
11:53 pm 23:53 Clear 60 15.6 16 -8.9 18 18 NW 6 9 30 1016 10 16.09344 0 0

Powered by AerisWeather